Time;durP1;ratioP1;P1;durP2;ratioP2;P2;SDS_P1;SDS_P2;PMS_P1;PMS_P2;Temp;Humidity;BMP_temperature;BMP_pressure;BME280_temperature;BME280_humidity;BME280_pressure;Samples;Min_cycle;Max_cycle;Signal;HPM_P1;HPM_P2
2021/09/03 00:04:06;;;;;;;22.08;14.75;;;;;;;15.41;67.11;102486.41;10434431;28;20049;-82
2021/09/03 00:09:06;;;;;;;32.58;16.83;;;;;;;15.18;67.14;102448.31;10433126;28;20037;-81
2021/09/03 00:14:07;;;;;;;35.17;17.60;;;;;;;15.33;66.89;102470.97;10432908;28;20453;-81
2021/09/03 00:19:07;;;;;;;31.40;18.05;;;;;;;15.30;67.23;102462.34;10453298;28;20044;-82
2021/09/03 00:24:08;;;;;;;31.13;18.50;;;;;;;15.34;67.18;102469.94;10433366;28;20465;-81
2021/09/03 00:29:08;;;;;;;25.40;17.30;;;;;;;15.28;67.55;102470.72;10451398;28;20079;-82
2021/09/03 00:34:09;;;;;;;43.05;19.60;;;;;;;15.17;67.60;102421.22;10434276;28;20045;-81
2021/09/03 00:39:09;;;;;;;34.88;17.20;;;;;;;15.37;67.42;102460.53;10451975;28;20041;-82
2021/09/03 00:44:10;;;;;;;23.73;17.05;;;;;;;15.39;67.71;102457.63;10449182;28;20041;-82
2021/09/03 00:49:10;;;;;;;25.25;17.60;;;;;;;15.21;67.43;102414.34;10467254;28;20111;-82
2021/09/03 00:54:11;;;;;;;34.33;18.75;;;;;;;14.65;67.30;102325.75;10490544;28;20515;-82
2021/09/03 00:59:11;;;;;;;36.75;19.98;;;;;;;15.34;67.74;102439.06;10455198;28;20033;-81
2021/09/03 01:04:12;;;;;;;32.63;18.33;;;;;;;15.30;67.97;102435.03;10472720;28;20036;-81
2021/09/03 01:09:12;;;;;;;32.15;18.00;;;;;;;15.21;68.36;102437.03;10471601;28;20511;-82
2021/09/03 01:14:13;;;;;;;38.97;19.23;;;;;;;15.19;69.44;102424.59;10454859;28;20364;-81
2021/09/03 01:19:13;;;;;;;26.70;17.40;;;;;;;15.02;69.18;102419.34;10471617;28;20036;-81
2021/09/03 01:24:14;;;;;;;32.92;19.88;;;;;;;15.15;68.71;102420.56;10455563;28;20044;-82
2021/09/03 01:29:14;;;;;;;47.28;21.70;;;;;;;14.65;69.08;102336.66;10472065;28;20057;-81
2021/09/03 01:34:15;;;;;;;35.78;19.98;;;;;;;15.22;69.04;102416.03;10491435;28;20553;-81
2021/09/03 01:39:15;;;;;;;40.75;20.98;;;;;;;14.39;69.78;102289.94;10473246;28;20036;-81
2021/09/03 01:44:16;;;;;;;27.88;19.45;;;;;;;14.80;69.50;102365.78;10464443;28;20052;-81
2021/09/03 01:49:16;;;;;;;26.75;18.00;;;;;;;14.94;68.92;102375.84;10464725;28;20053;-82
2021/09/03 01:54:17;;;;;;;34.55;19.25;;;;;;;15.05;69.03;102377.22;10482193;28;20043;-81
2021/09/03 01:59:17;;;;;;;39.00;19.98;;;;;;;15.19;69.06;102391.84;10480815;28;20025;-82
2021/09/03 02:04:17;;;;;;;29.13;18.67;;;;;;;15.10;68.76;102413.81;10481254;28;20551;-81
2021/09/03 02:09:18;;;;;;;28.77;19.05;;;;;;;14.96;68.26;102368.28;10498399;28;20119;-82
2021/09/03 02:14:18;;;;;;;27.42;16.65;;;;;;;15.16;68.60;102390.38;10480070;28;20106;-81
2021/09/03 02:19:19;;;;;;;39.63;20.58;;;;;;;14.58;68.66;102292.09;10480826;28;20079;-82
2021/09/03 02:24:19;;;;;;;31.20;15.93;;;;;;;14.59;68.32;102317.47;10480554;28;20115;-82
2021/09/03 02:29:19;;;;;;;26.25;17.13;;;;;;;15.13;68.40;102384.47;10479999;28;20480;-82
2021/09/03 02:34:23;;;;;;;28.60;19.38;;;;;;;15.01;68.51;102365.00;10497635;28;20170;-82
2021/09/03 02:39:24;;;;;;;33.00;17.70;;;;;;;15.02;68.83;102392.06;10480511;28;20379;-81
2021/09/03 02:44:24;;;;;;;29.17;17.35;;;;;;;14.94;68.84;102369.53;10479339;28;20116;-81
2021/09/03 02:49:25;;;;;;;32.00;20.02;;;;;;;13.68;68.88;102153.34;10480156;28;20408;-81
2021/09/03 02:54:25;;;;;;;33.90;18.15;;;;;;;14.95;69.84;102363.88;10480141;28;20127;-81
2021/09/03 02:59:25;;;;;;;33.13;19.67;;;;;;;14.81;69.47;102337.47;10497767;28;20104;-81
2021/09/03 03:04:26;;;;;;;31.00;19.13;;;;;;;15.00;69.26;102347.78;10480397;28;20115;-81
2021/09/03 03:09:26;;;;;;;33.08;19.38;;;;;;;14.93;69.74;102346.84;10479256;28;20388;-81
2021/09/03 03:14:28;;;;;;;40.10;21.63;;;;;;;14.90;70.14;102339.06;10478353;28;20064;-81
2021/09/03 03:19:29;;;;;;;36.75;21.25;;;;;;;14.93;69.68;102322.28;10501079;28;20090;-81
2021/09/03 03:24:29;;;;;;;38.70;20.13;;;;;;;14.97;70.03;102334.53;10487759;28;20117;-81
2021/09/03 03:29:30;;;;;;;42.60;21.45;;;;;;;14.96;70.03;102329.25;10487228;28;20036;-81
2021/09/03 03:34:30;;;;;;;30.83;19.70;;;;;;;14.32;70.18;102234.47;10470446;28;20029;-81
2021/09/03 03:39:30;;;;;;;35.20;19.45;;;;;;;14.95;70.07;102317.50;10453506;28;20086;-81
2021/09/03 03:44:31;;;;;;;34.13;20.17;;;;;;;14.59;70.41;102268.41;10503403;28;20032;-81
2021/09/03 03:49:32;;;;;;;35.10;21.65;;;;;;;14.82;70.76;102307.28;10485842;28;20057;-81
2021/09/03 03:54:32;;;;;;;36.00;22.55;;;;;;;14.86;71.44;102318.66;10503560;28;20083;-81
2021/09/03 03:59:33;;;;;;;42.90;21.02;;;;;;;14.85;71.25;102306.91;10468994;28;20032;-81
2021/09/03 04:04:33;;;;;;;38.35;19.95;;;;;;;14.79;71.44;102299.47;10484741;28;20060;-81
2021/09/03 04:09:34;;;;;;;32.33;20.65;;;;;;;14.84;71.03;102305.22;10485818;28;20041;-81
2021/09/03 04:14:40;;;;;;;42.90;23.52;;;;;;;14.89;71.27;102301.91;10484039;28;20037;-82
2021/09/03 04:19:41;;;;;;;44.40;25.13;;;;;;;14.80;71.11;102309.34;10485962;28;20056;-81
2021/09/03 04:24:41;;;;;;;39.40;23.92;;;;;;;14.71;71.39;102298.72;10434698;28;20767;-81
2021/09/03 04:29:42;;;;;;;41.30;23.33;;;;;;;14.79;70.92;102317.72;10484475;28;20111;-82
2021/09/03 04:34:42;;;;;;;37.45;21.65;;;;;;;14.55;70.84;102250.72;10484770;28;20372;-83
2021/09/03 04:39:43;;;;;;;42.10;22.55;;;;;;;14.88;70.23;102322.03;10450932;28;20456;-81
2021/09/03 04:44:43;;;;;;;37.05;22.65;;;;;;;14.89;69.95;102305.47;10462222;28;20052;-83
2021/09/03 04:49:43;;;;;;;31.08;21.38;;;;;;;14.44;70.49;102232.97;10498363;28;20068;-84
2021/09/03 04:54:44;;;;;;;42.88;24.52;;;;;;;14.49;71.31;102244.16;10483483;28;20063;-83
2021/09/03 04:59:44;;;;;;;36.05;21.88;;;;;;;14.79;71.13;102301.38;10466931;28;20472;-84
2021/09/03 05:04:45;;;;;;;32.45;22.13;;;;;;;14.85;71.87;102300.59;10483663;28;20064;-82
2021/09/03 05:09:46;;;;;;;43.90;20.58;;;;;;;14.91;71.44;102294.38;10500375;28;20120;-80
2021/09/03 05:14:46;;;;;;;41.35;24.75;;;;;;;14.93;71.57;102297.75;10465189;28;20039;-81
2021/09/03 05:19:46;;;;;;;44.28;23.95;;;;;;;14.99;71.22;102291.50;10482378;28;20028;-81
2021/09/03 05:24:47;;;;;;;38.30;22.00;;;;;;;15.09;70.45;102291.19;10482193;28;20075;-81
2021/09/03 05:29:47;;;;;;;46.42;24.30;;;;;;;15.23;70.03;102294.94;10499850;28;20167;-81
2021/09/03 05:34:49;;;;;;;30.83;22.25;;;;;;;15.35;70.16;102296.13;10482563;28;20032;-81
2021/09/03 05:39:49;;;;;;;33.95;22.02;;;;;;;15.40;70.06;102304.53;10448873;28;20047;-81
2021/09/03 05:44:49;;;;;;;38.38;23.40;;;;;;;15.52;70.09;102305.72;10480814;28;20043;-81
2021/09/03 05:49:50;;;;;;;39.38;22.50;;;;;;;15.63;69.87;102309.78;10481416;28;20071;-81
2021/09/03 05:54:50;;;;;;;41.28;23.58;;;;;;;15.47;69.89;102226.28;10465560;28;20383;-81
2021/09/03 05:59:51;;;;;;;44.28;22.83;;;;;;;16.58;68.78;102278.28;10500130;28;20127;-82
2021/09/03 06:04:51;;;;;;;50.25;25.15;;;;;;;17.55;67.37;102296.25;10449088;28;20431;-81
2021/09/03 06:09:52;;;;;;;33.08;22.30;;;;;;;17.87;66.72;102272.66;10447368;28;20102;-81
2021/09/03 06:14:52;;;;;;;33.28;22.10;;;;;;;18.17;65.66;102279.56;10497845;28;20032;-81
2021/09/03 06:19:52;;;;;;;33.33;20.67;;;;;;;18.74;65.11;102292.50;10465835;28;20035;-82
2021/09/03 06:24:53;;;;;;;31.92;18.73;;;;;;;18.79;64.84;102232.31;10465765;28;20086;-82
2021/09/03 06:29:59;;;;;;;26.27;18.45;;;;;;;19.37;64.27;102283.47;10498638;28;20044;-81
2021/09/03 06:35:01;;;;;;;28.35;16.30;;;;;;;19.62;63.79;102293.63;10498765;28;20036;-81
2021/09/03 06:40:01;;;;;;;34.90;17.52;;;;;;;19.64;64.38;102262.13;10482160;28;20071;-81
2021/09/03 06:45:11;;;;;;;36.25;16.92;;;;;;;20.16;64.30;102292.09;10497260;28;20528;-82
2021/09/03 06:50:18;;;;;;;21.15;15.95;;;;;;;20.91;63.09;102286.34;10437454;28;20132;-81
2021/09/03 06:55:32;;;;;;;;;;;;;;;21.79;61.84;102288.41;10423066;28;20041;-82
2021/09/03 07:00:32;;;;;;;19.83;14.13;;;;;;;21.95;60.50;102239.97;10456234;28;20356;-82
2021/09/03 07:05:41;;;;;;;20.35;13.43;;;;;;;22.77;58.91;102276.75;10421496;28;20044;-82
2021/09/03 07:10:58;;;;;;;13.45;11.80;;;;;;;23.53;55.82;102282.88;10456046;28;20033;-82
2021/09/03 07:16:04;;;;;;;26.88;13.77;;;;;;;23.20;57.75;102277.06;10434686;28;20033;-83
2021/09/03 07:21:23;;;;;;;21.17;12.63;;;;;;;23.10;58.14;102281.56;10420969;28;20033;-83
2021/09/03 07:26:23;;;;;;;30.10;14.27;;;;;;;23.64;55.03;102287.47;10418408;28;20128;-82
2021/09/03 07:31:24;;;;;;;15.65;13.63;;;;;;;23.72;55.55;102208.81;10435105;28;20128;-83
2021/09/03 07:36:24;;;;;;;13.65;11.55;;;;;;;24.27;54.69;102286.25;10435041;28;20117;-83
2021/09/03 07:41:25;;;;;;;22.25;13.40;;;;;;;24.70;53.03;102269.94;10434761;28;20033;-83
2021/09/03 07:46:25;;;;;;;18.70;12.65;;;;;;;24.67;52.73;102268.50;10464034;28;20075;-84
2021/09/03 07:51:58;;;;;;;12.25;10.98;;;;;;;25.40;51.88;102243.19;10475192;28;20431;-83
2021/09/03 07:57:11;;;;;;;15.43;12.55;;;;;;;25.04;56.11;102257.53;10463471;28;20447;-83
2021/09/03 08:02:12;;;;;;;17.38;11.93;;;;;;;24.92;52.67;102256.88;10474474;28;20032;-84
2021/09/03 08:07:12;;;;;;;12.48;10.05;;;;;;;24.99;53.33;102251.13;10477980;28;20380;-84
2021/09/03 08:12:26;;;;;;;13.55;11.88;;;;;;;25.36;56.00;102225.41;10498942;28;20175;-85
2021/09/03 08:17:43;;;;;;;23.27;12.52;;;;;;;24.11;52.47;102016.75;10483438;28;20032;-84
2021/09/03 08:23:28;;;;;;;19.90;10.70;;;;;;;25.44;54.15;102158.38;10422010;28;20032;-84
2021/09/03 08:28:29;;;;;;;13.00;10.65;;;;;;;25.51;52.97;102251.34;10273318;28;20118;-83
2021/09/03 08:33:32;;;;;;;16.25;10.93;;;;;;;25.75;52.61;102243.47;10452922;28;20055;-84
2021/09/03 08:38:33;;;;;;;12.02;10.93;;;;;;;25.53;53.21;102209.47;10465062;28;20036;-83
2021/09/03 08:43:34;;;;;;;10.30;9.05;;;;;;;25.80;50.70;102261.25;10478852;28;20451;-83
2021/09/03 08:48:34;;;;;;;20.63;9.40;;;;;;;25.73;55.58;102265.09;10478990;28;20116;-84
2021/09/03 08:53:38;;;;;;;18.08;12.07;;;;;;;25.91;50.74;102243.59;10477652;28;20404;-83
2021/09/03 08:58:39;;;;;;;12.52;10.88;;;;;;;26.50;48.98;102260.03;10459646;28;20448;-83
2021/09/03 09:03:41;;;;;;;13.45;9.23;;;;;;;27.23;49.62;102262.72;10461286;28;20036;-83
2021/09/03 09:15:06;;;;;;;11.10;8.80;;;;;;;28.68;46.16;102259.38;10480002;28;20040;-83
2021/09/03 09:20:13;;;;;;;9.48;8.60;;;;;;;28.94;48.36;102255.34;10476674;28;20025;-84
2021/09/03 09:25:33;;;;;;;11.23;8.90;;;;;;;28.91;49.53;102250.34;10495625;28;20025;-84
2021/09/03 09:30:33;;;;;;;10.88;8.50;;;;;;;25.99;46.78;101951.66;10484676;28;20107;-83
2021/09/03 09:35:47;;;;;;;15.10;8.70;;;;;;;27.66;49.19;102168.66;10482793;28;20063;-84
2021/09/03 09:40:53;;;;;;;16.20;9.55;;;;;;;28.56;47.02;102254.16;10494768;28;20028;-83
2021/09/03 09:46:20;;;;;;;15.25;9.73;;;;;;;28.55;50.39;102252.47;10487578;28;20041;-84
2021/09/03 09:51:43;;;;;;;12.32;9.20;;;;;;;28.01;47.25;102245.69;10436671;28;20127;-83
2021/09/03 09:57:17;;;;;;;8.75;8.00;;;;;;;28.29;47.24;102249.78;10451803;28;20057;-83
2021/09/03 10:02:36;;;;;;;11.30;10.20;;;;;;;27.41;48.86;102052.72;10433300;28;20113;-83
2021/09/03 10:07:38;;;;;;;12.13;9.27;;;;;;;28.07;45.96;102145.44;10418636;28;20111;-83
2021/09/03 10:12:38;;;;;;;14.52;10.23;;;;;;;27.72;44.02;102233.50;10436243;28;20032;-84
2021/09/03 10:17:40;;;;;;;23.95;10.75;;;;;;;26.47;46.40;102048.59;10438933;28;20044;-83
2021/09/03 10:22:42;;;;;;;14.02;9.20;;;;;;;28.89;43.36;102219.09;10422174;28;20083;-83
2021/09/03 10:27:42;;;;;;;14.20;9.90;;;;;;;29.02;44.43;102222.41;10437982;28;20144;-84
2021/09/03 10:32:49;;;;;;;16.08;8.80;;;;;;;28.74;45.52;102217.25;10417724;28;20036;-83
2021/09/03 10:37:55;;;;;;;;;;;;;;;28.68;47.39;102214.78;10422760;28;20064;-83
2021/09/03 10:42:56;;;;;;;10.95;9.73;;;;;;;29.29;43.74;102175.31;10441642;28;19912;-84
2021/09/03 10:47:57;;;;;;;17.45;11.23;;;;;;;29.42;42.70;102193.34;10456605;28;20059;-83
2021/09/03 10:53:06;;;;;;;14.68;9.20;;;;;;;29.80;43.51;102177.59;10500986;28;20032;-83
2021/09/03 10:58:48;;;;;;;13.32;8.52;;;;;;;29.93;45.18;102187.22;10475239;28;20043;-83
2021/09/03 11:04:17;;;;;;;17.08;9.30;;;;;;;30.27;44.56;102175.06;10489234;28;20589;-83
2021/09/03 11:09:28;;;;;;;28.00;9.48;;;;;;;29.31;43.29;102096.88;10459557;28;20533;-83
2021/09/03 11:14:29;;;;;;;22.35;10.48;;;;;;;28.68;40.28;102108.84;10474598;28;20017;-83
2021/09/03 11:20:09;;;;;;;13.35;9.02;;;;;;;29.02;44.00;102172.19;10442581;28;20036;-83
2021/09/03 11:25:20;;;;;;;11.63;10.52;;;;;;;27.86;42.82;101986.03;10464818;28;20066;-83
2021/09/03 11:30:35;;;;;;;;;;;;;;;;;;;;;
2021/09/03 11:35:39;;;;;;;11.33;8.93;;;;;;;29.47;40.06;102172.91;10476642;28;20035;-84
2021/09/03 11:40:39;;;;;;;11.88;10.57;;;;;;;29.13;40.87;102074.19;10464011;28;20136;-83
2021/09/03 11:45:45;;;;;;;13.90;9.68;;;;;;;28.76;42.80;102010.69;10482470;28;20064;-84
2021/09/03 11:50:46;;;;;;;21.10;10.93;;;;;;;29.54;39.85;102056.16;10356886;28;20428;-83
2021/09/03 11:55:48;;;;;;;16.67;10.93;;;;;;;30.39;40.24;102113.16;10356503;28;20458;-83
2021/09/03 12:01:38;;;;;;;9.80;8.82;;;;;;;30.17;40.02;102133.28;10343640;28;20061;-82
2021/09/03 12:06:42;;;;;;;15.18;11.15;;;;;;;30.30;39.34;102133.38;10343539;28;20076;-82
2021/09/03 12:17:41;;;;;;;15.90;10.35;;;;;;;28.69;41.94;102002.66;10367784;28;20057;-82
2021/09/03 12:22:55;;;;;;;18.80;10.18;;;;;;;27.88;43.63;101925.31;10440800;28;20043;-83
2021/09/03 12:28:49;;;;;;;;;;;;;;;;;;;;;
2021/09/03 12:33:57;;;;;;;13.18;10.50;;;;;;;29.03;41.71;102010.13;10456442;28;20352;-83
2021/09/03 12:39:35;;;;;;;16.10;11.48;;;;;;;29.59;43.37;102111.94;10442579;28;20139;-82
2021/09/03 12:44:35;;;;;;;11.13;10.05;;;;;;;28.42;41.22;101952.19;10440135;28;20491;-82
2021/09/03 12:49:37;;;;;;;15.20;9.90;;;;;;;29.68;42.13;101984.53;10432633;28;20068;-83
2021/09/03 12:54:40;;;;;;;20.80;12.80;;;;;;;30.40;42.38;102104.47;10467429;28;20063;-83
2021/09/03 12:59:41;;;;;;;15.38;10.63;;;;;;;30.41;40.10;102075.41;10459105;28;20036;-83
2021/09/03 13:04:43;;;;;;;13.98;10.57;;;;;;;30.00;40.04;102039.66;10457713;28;20045;-83
2021/09/03 13:09:43;;;;;;;14.75;11.93;;;;;;;31.15;39.69;102085.91;10425736;28;20410;-82
2021/09/03 13:15:02;;;;;;;10.93;9.52;;;;;;;30.62;45.27;102059.09;10427335;28;20440;-82
2021/09/03 13:20:10;;;;;;;16.17;12.35;;;;;;;31.64;40.42;102096.41;10467178;28;20040;-83
2021/09/03 13:25:11;;;;;;;11.63;10.13;;;;;;;31.55;39.17;102078.69;10409643;28;20398;-83
2021/09/03 13:30:12;;;;;;;16.80;11.93;;;;;;;30.84;37.67;102004.50;10444100;28;20044;-83
2021/09/03 13:35:17;;;;;;;13.93;10.68;;;;;;;30.45;39.62;102044.88;10441402;28;20033;-82
2021/09/03 13:40:17;;;;;;;12.60;8.65;;;;;;;30.64;39.49;102065.22;10440633;28;20051;-82
2021/09/03 13:45:18;;;;;;;14.35;10.00;;;;;;;30.75;39.31;102049.09;10457748;28;20056;-83
2021/09/03 13:50:25;;;;;;;18.38;11.45;;;;;;;30.72;39.60;102008.59;10433822;28;20055;-82
2021/09/03 13:55:29;;;;;;;11.65;9.27;;;;;;;30.89;39.63;102046.34;10442102;28;20072;-82
2021/09/03 14:00:33;;;;;;;13.88;11.65;;;;;;;30.01;41.95;101951.94;10463976;28;20585;-83
2021/09/03 14:05:35;;;;;;;14.60;10.93;;;;;;;29.00;42.05;101889.97;10482409;28;20040;-82
2021/09/03 14:10:36;;;;;;;15.02;9.77;;;;;;;30.02;42.02;102033.75;10500125;28;20033;-82
2021/09/03 14:15:36;;;;;;;12.02;10.93;;;;;;;29.88;42.75;102028.91;10464322;28;20028;-82
2021/09/03 14:20:38;;;;;;;14.35;10.40;;;;;;;30.12;41.96;102041.97;10481557;28;20021;-82
2021/09/03 14:25:39;;;;;;;13.02;10.85;;;;;;;29.96;42.40;102001.44;10499019;28;20036;-83
2021/09/03 14:30:40;;;;;;;20.75;12.05;;;;;;;29.64;43.43;102019.75;10482114;28;20024;-83
2021/09/03 14:35:47;;;;;;;33.83;10.18;;;;;;;29.25;46.56;102014.38;10464132;28;20036;-81
2021/09/03 14:40:47;;;;;;;16.98;12.10;;;;;;;28.76;42.17;101951.31;10467194;28;20170;-82
2021/09/03 14:45:48;;;;;;;19.92;11.07;;;;;;;28.82;44.18;101922.25;10500813;28;20115;-82
2021/09/03 14:50:51;;;;;;;22.83;9.98;;;;;;;28.95;43.89;101994.88;10501133;28;20049;-81
2021/09/03 14:55:59;;;;;;;15.30;10.93;;;;;;;28.08;44.58;101994.78;10474333;28;20028;-82
2021/09/03 15:01:00;;;;;;;11.30;10.13;;;;;;;26.71;45.78;101913.59;10467321;28;20039;-83
2021/09/03 15:06:01;;;;;;;16.80;10.43;;;;;;;26.69;48.04;101981.66;10468879;28;20040;-81
2021/09/03 15:11:02;;;;;;;18.50;11.75;;;;;;;25.51;48.97;101928.78;10484425;28;20096;-82
2021/09/03 15:16:06;;;;;;;31.10;12.85;;;;;;;25.95;49.85;101986.63;10506924;28;20044;-81
2021/09/03 15:21:07;;;;;;;15.32;11.43;;;;;;;25.12;49.34;101882.06;10492695;28;20044;-82
2021/09/03 15:26:08;;;;;;;15.93;11.15;;;;;;;24.53;49.39;101851.84;10492716;28;20520;-82
2021/09/03 15:31:09;;;;;;;11.90;10.07;;;;;;;25.44;49.94;101978.13;10490055;28;20127;-82
2021/09/03 15:36:09;;;;;;;12.48;10.27;;;;;;;24.69;51.35;101889.59;10490911;28;20111;-82
2021/09/03 15:41:15;;;;;;;25.55;11.52;;;;;;;25.07;51.61;101973.47;10488618;28;20353;-83
2021/09/03 15:46:18;;;;;;;21.73;11.23;;;;;;;25.14;50.58;101976.03;10472856;28;20032;-81
2021/09/03 15:51:20;;;;;;;29.25;12.52;;;;;;;24.80;50.98;101919.03;10490917;28;20496;-81
2021/09/03 15:56:20;;;;;;;19.83;11.82;;;;;;;25.00;50.89;101956.25;10513490;28;20043;-81
2021/09/03 16:01:21;;;;;;;18.00;11.48;;;;;;;24.08;50.49;101828.25;10508567;28;20129;-82
2021/09/03 16:06:27;;;;;;;15.02;11.38;;;;;;;24.91;50.43;101957.88;10490955;28;20044;-82
2021/09/03 16:11:28;;;;;;;19.45;10.23;;;;;;;24.76;52.13;101959.47;10487951;28;20042;-82
2021/09/03 16:16:30;;;;;;;19.73;12.48;;;;;;;24.70;51.53;101971.59;10487209;28;20028;-82
2021/09/03 16:21:30;;;;;;;22.50;12.38;;;;;;;24.34;51.92;101957.44;10469843;28;20386;-82
2021/09/03 16:26:30;;;;;;;22.17;12.18;;;;;;;23.89;52.56;101892.28;10484607;28;20032;-83
2021/09/03 16:31:32;;;;;;;24.20;11.55;;;;;;;23.94;53.28;101910.88;10486261;28;20420;-82
2021/09/03 16:36:33;;;;;;;14.68;10.30;;;;;;;24.13;53.19;101952.84;10485321;28;20090;-81
2021/09/03 16:41:37;;;;;;;18.15;10.95;;;;;;;23.69;54.04;101928.06;10486644;28;20082;-82
2021/09/03 16:46:37;;;;;;;25.13;12.00;;;;;;;23.95;53.58;101948.50;10467909;28;20039;-82
2021/09/03 16:51:41;;;;;;;16.80;12.10;;;;;;;23.71;55.73;101952.69;10501872;28;20041;-82
2021/09/03 16:56:42;;;;;;;17.27;11.13;;;;;;;23.57;54.32;101955.00;10502244;28;20032;-82
2021/09/03 17:01:42;;;;;;;17.42;11.40;;;;;;;23.67;53.92;101949.56;10483629;28;20032;-82
2021/09/03 17:06:42;;;;;;;12.93;9.80;;;;;;;23.38;55.06;101943.44;10507185;28;20041;-82
2021/09/03 17:11:43;;;;;;;23.52;12.95;;;;;;;23.20;55.05;101952.91;10484551;28;20037;-82
2021/09/03 17:16:43;;;;;;;23.25;11.82;;;;;;;23.18;55.04;101952.31;10485081;28;20020;-82
2021/09/03 17:21:44;;;;;;;23.05;12.55;;;;;;;22.82;56.44;101951.81;10467395;28;20096;-82
2021/09/03 17:26:44;;;;;;;18.88;10.68;;;;;;;22.79;56.10;101955.06;10500959;28;20119;-83
2021/09/03 17:31:45;;;;;;;18.42;10.45;;;;;;;22.16;55.99;101874.31;10501652;28;20079;-82
2021/09/03 17:36:45;;;;;;;18.17;11.35;;;;;;;21.68;57.32;101825.22;10500995;28;20067;-82
2021/09/03 17:41:45;;;;;;;14.75;9.15;;;;;;;22.08;57.58;101956.63;10483161;28;20107;-83
2021/09/03 17:46:46;;;;;;;14.20;10.75;;;;;;;21.83;58.38;101946.81;10482164;28;20119;-82
2021/09/03 17:51:46;;;;;;;16.85;10.20;;;;;;;21.57;58.34;101957.38;10500856;28;20114;-82
2021/09/03 17:56:47;;;;;;;19.60;11.95;;;;;;;20.71;58.59;101842.59;10482089;28;20129;-82
2021/09/03 18:01:57;;;;;;;18.63;10.88;;;;;;;21.21;59.40;101950.22;10499527;28;20531;-82
2021/09/03 18:06:58;;;;;;;14.23;11.13;;;;;;;20.99;59.35;101929.91;10481593;28;20119;-82
2021/09/03 18:11:59;;;;;;;25.73;12.60;;;;;;;20.71;60.48;101919.66;10464493;28;20149;-82
2021/09/03 18:16:59;;;;;;;16.90;11.23;;;;;;;20.38;59.99;101912.81;10481933;28;20182;-82
2021/09/03 18:22:00;;;;;;;20.52;10.77;;;;;;;20.39;60.34;101915.34;10504823;28;20039;-82
2021/09/03 18:27:01;;;;;;;18.08;11.95;;;;;;;19.10;61.33;101752.88;10483288;28;20032;-83
2021/09/03 18:32:01;;;;;;;17.50;10.20;;;;;;;20.08;62.26;101952.25;10482658;28;20039;-82
2021/09/03 18:37:02;;;;;;;16.73;10.95;;;;;;;19.98;62.44;101951.97;10499488;28;20082;-82
2021/09/03 18:42:03;;;;;;;22.48;11.77;;;;;;;19.76;64.19;101967.31;10499161;28;20419;-83
2021/09/03 18:47:05;;;;;;;15.77;10.55;;;;;;;18.90;63.21;101854.72;10436437;28;20108;-83
2021/09/03 18:52:07;;;;;;;20.67;12.07;;;;;;;19.50;64.30;101977.56;10464170;28;20402;-82
2021/09/03 18:57:07;;;;;;;24.13;11.93;;;;;;;19.48;63.54;101985.19;10497924;28;20041;-83
2021/09/03 19:02:09;;;;;;;20.70;11.05;;;;;;;18.79;63.04;101878.28;10499549;28;20052;-82
2021/09/03 19:07:17;;;;;;;18.70;11.02;;;;;;;19.41;63.09;101993.50;10481027;28;20064;-83
2021/09/03 19:12:18;;;;;;;29.63;12.88;;;;;;;19.35;63.11;102002.66;10464705;28;20480;-83
2021/09/03 19:17:18;;;;;;;17.45;12.65;;;;;;;19.31;62.93;102003.38;10498035;28;20106;-83
2021/09/03 19:22:19;;;;;;;25.70;15.90;;;;;;;19.08;64.21;101996.66;10479664;28;20028;-84
2021/09/03 19:27:23;;;;;;;24.70;14.75;;;;;;;18.82;65.05;102005.97;10503310;28;20059;-83
2021/09/03 19:32:24;;;;;;;14.93;11.05;;;;;;;18.95;63.97;102013.22;10463619;28;20067;-82
2021/09/03 19:37:25;;;;;;;21.10;12.82;;;;;;;18.66;64.94;102004.59;10504153;28;20052;-82
2021/09/03 19:42:25;;;;;;;18.98;13.70;;;;;;;18.39;64.97;101971.06;10464449;28;20526;-83
2021/09/03 19:47:26;;;;;;;18.13;13.93;;;;;;;18.35;65.46;102000.03;10480834;28;20032;-83
2021/09/03 19:52:27;;;;;;;27.50;11.70;;;;;;;17.99;64.69;101938.47;10498956;28;20083;-83
2021/09/03 19:57:27;;;;;;;22.30;15.20;;;;;;;18.16;64.98;101968.09;10446437;28;20424;-84
2021/09/03 20:02:28;;;;;;;21.35;13.07;;;;;;;18.44;64.70;102012.41;10486021;28;20099;-83
2021/09/03 20:07:28;;;;;;;24.25;13.45;;;;;;;18.12;64.54;101964.94;10488698;28;20041;-83
2021/09/03 20:12:28;;;;;;;16.35;11.65;;;;;;;18.35;64.86;102014.56;10487141;28;20031;-83
2021/09/03 20:17:29;;;;;;;19.90;13.43;;;;;;;18.21;64.63;102001.16;10486628;28;20059;-83
2021/09/03 20:22:29;;;;;;;30.65;13.73;;;;;;;18.28;64.94;102016.53;10471279;28;20479;-83
2021/09/03 20:27:30;;;;;;;22.15;14.63;;;;;;;18.18;65.50;102024.38;10486799;28;20035;-82
2021/09/03 20:32:31;;;;;;;28.02;13.90;;;;;;;17.88;65.90;102003.03;10487663;28;20174;-83
2021/09/03 20:37:31;;;;;;;28.30;14.75;;;;;;;17.97;66.27;102006.38;10469692;28;20036;-82
2021/09/03 20:42:32;;;;;;;24.25;16.15;;;;;;;16.52;68.29;101828.75;10506314;28;20028;-82
2021/09/03 20:47:33;;;;;;;20.25;14.05;;;;;;;17.19;68.46;101947.06;10504436;28;20032;-82
2021/09/03 20:52:33;;;;;;;22.40;16.58;;;;;;;17.54;67.84;101995.19;10487253;28;20464;-83
2021/09/03 20:57:34;;;;;;;21.83;15.90;;;;;;;17.56;67.82;102006.75;10486397;28;20086;-83
2021/09/03 21:02:34;;;;;;;24.42;15.52;;;;;;;17.53;67.31;101999.81;10486782;28;20033;-84
2021/09/03 21:07:35;;;;;;;27.55;17.48;;;;;;;17.18;67.86;101958.25;10504891;28;20483;-82
2021/09/03 21:12:47;;;;;;;37.88;18.38;;;;;;;16.27;67.77;101874.22;10469060;28;20041;-83
2021/09/03 21:17:50;;;;;;;27.33;16.90;;;;;;;15.39;67.63;101690.63;10487646;28;20475;-83
2021/09/03 21:22:50;;;;;;;29.73;16.67;;;;;;;17.36;68.08;101994.00;10485214;28;20036;-83
2021/09/03 21:27:51;;;;;;;28.77;17.02;;;;;;;17.03;67.31;101976.81;10468173;28;20525;-83
2021/09/03 21:32:51;;;;;;;24.10;17.10;;;;;;;16.59;67.69;101915.41;10487029;28;20056;-83
2021/09/03 21:37:52;;;;;;;42.33;16.85;;;;;;;17.19;68.52;102000.97;10483910;28;20131;-83
2021/09/03 21:42:53;;;;;;;23.65;17.83;;;;;;;16.92;70.99;102006.50;10467598;28;20374;-83
2021/09/03 21:47:53;;;;;;;30.45;17.00;;;;;;;17.03;69.69;102009.66;10465095;28;20049;-84
2021/09/03 21:52:54;;;;;;;26.35;15.93;;;;;;;16.95;70.33;102008.81;10465188;28;20499;-82
2021/09/03 21:57:58;;;;;;;23.33;13.57;;;;;;;17.04;69.38;102001.25;10468032;28;20028;-82
2021/09/03 22:03:01;;;;;;;20.58;15.45;;;;;;;16.58;69.31;101943.81;10464664;28;20533;-82
2021/09/03 22:08:01;;;;;;;30.23;16.85;;;;;;;16.34;69.79;101904.31;10464240;28;20438;-82
2021/09/03 22:13:01;;;;;;;22.38;14.73;;;;;;;17.01;69.12;102007.13;10487576;28;20070;-84
2021/09/03 22:18:06;;;;;;;21.30;13.77;;;;;;;17.00;68.94;102012.81;10507337;28;20040;-83
2021/09/03 22:23:07;;;;;;;27.60;17.25;;;;;;;16.58;69.79;101958.31;10506362;28;20024;-83
2021/09/03 22:28:07;;;;;;;23.88;15.02;;;;;;;15.93;70.71;101919.84;10489262;28;20036;-82
2021/09/03 22:33:08;;;;;;;29.27;16.38;;;;;;;16.85;69.96;102010.31;10487558;28;20033;-82
2021/09/03 22:38:36;;;;;;;30.10;15.10;;;;;;;16.76;70.19;102011.59;10507503;28;20051;-82
2021/09/03 22:43:36;;;;;;;23.90;15.32;;;;;;;16.67;70.60;102017.22;10478036;28;20045;-82
2021/09/03 22:48:36;;;;;;;22.88;15.85;;;;;;;16.49;70.88;102017.00;10506482;28;20061;-82
2021/09/03 22:53:37;;;;;;;19.63;14.52;;;;;;;16.09;71.28;101951.38;10501385;28;20044;-82
2021/09/03 22:58:37;;;;;;;26.88;15.73;;;;;;;16.32;71.57;101983.78;10486371;28;20044;-82
2021/09/03 23:03:38;;;;;;;22.77;15.20;;;;;;;16.24;72.78;102012.16;10474889;28;20179;-82
2021/09/03 23:08:38;;;;;;;39.30;17.20;;;;;;;16.43;70.81;102005.03;10507991;28;20071;-82